Time;durP1;ratioP1;P1;durP2;ratioP2;P2;SDS_P1;SDS_P2;PMS_P1;PMS_P2;Temp;Humidity;BMP_temperature;BMP_pressure;BME280_temperature;BME280_humidity;BME280_pressure;Samples;Min_cycle;Max_cycle;Signal;HPM_P1;HPM_P2
2022/10/31 00:00:29;;;;;;;8.80;6.73;;;11.40;99.90;;;;;;4971374;28;20633;-91
2022/10/31 00:02:56;;;;;;;15.63;7.10;;;11.30;99.90;;;;;;4970682;28;20617;-90
2022/10/31 00:05:22;;;;;;;12.73;7.63;;;11.40;99.90;;;;;;4970598;28;20641;-90
2022/10/31 00:07:54;;;;;;;11.50;7.30;;;11.70;99.90;;;;;;4973023;28;20632;-92
2022/10/31 00:10:20;;;;;;;8.40;7.53;;;11.60;99.90;;;;;;4972032;28;20669;-92
2022/10/31 00:12:47;;;;;;;10.13;7.50;;;11.30;99.90;;;;;;4972753;28;21144;-92
2022/10/31 00:15:14;;;;;;;8.87;7.00;;;11.60;99.90;;;;;;4960643;28;20666;-91
2022/10/31 00:17:41;;;;;;;12.40;8.40;;;11.20;99.90;;;;;;4972493;28;20637;-90
2022/10/31 00:20:09;;;;;;;11.33;7.80;;;11.60;99.90;;;;;;4972787;28;20634;-92
2022/10/31 00:22:35;;;;;;;11.77;8.00;;;11.70;99.90;;;;;;4974108;28;20621;-92
2022/10/31 00:25:04;;;;;;;13.07;7.70;;;11.60;99.90;;;;;;4973370;28;20656;-92
2022/10/31 00:27:31;;;;;;;10.83;8.40;;;11.70;99.90;;;;;;4978723;28;20621;-92
2022/10/31 00:29:57;;;;;;;9.33;7.43;;;11.10;99.90;;;;;;4992277;28;20657;-92
2022/10/31 00:32:24;;;;;;;9.63;7.40;;;11.50;99.90;;;;;;4990929;28;21150;-93
2022/10/31 00:34:51;;;;;;;9.50;8.37;;;11.30;99.90;;;;;;4976718;28;20664;-92
2022/10/31 00:37:18;;;;;;;10.53;7.50;;;11.50;99.90;;;;;;4993479;28;20632;-92
2022/10/31 00:39:45;;;;;;;9.83;6.87;;;11.40;99.90;;;;;;4994851;28;20625;-92
2022/10/31 00:42:13;;;;;;;10.37;7.47;;;11.10;99.90;;;;;;4993594;28;21238;-93
2022/10/31 00:44:40;;;;;;;8.60;7.70;;;11.00;99.90;;;;;;4993297;28;20652;-92
2022/10/31 00:47:07;;;;;;;8.47;7.67;;;11.10;99.90;;;;;;4989851;28;20630;-93
2022/10/31 00:49:33;;;;;;;14.27;9.03;;;11.40;99.90;;;;;;4988922;28;20665;-92
2022/10/31 00:52:00;;;;;;;9.67;7.53;;;10.90;99.90;;;;;;4992894;28;20709;-91
2022/10/31 00:54:27;;;;;;;10.20;8.70;;;11.40;99.90;;;;;;4987495;28;20632;-92
2022/10/31 00:56:54;;;;;;;10.50;9.40;;;11.50;99.90;;;;;;4986207;28;20963;-91
2022/10/31 00:59:22;;;;;;;11.33;8.40;;;10.90;99.90;;;;;;4982983;28;20621;-92
2022/10/31 01:01:49;;;;;;;12.00;8.80;;;11.50;99.90;;;;;;4975835;28;20629;-92
2022/10/31 01:04:15;;;;;;;11.63;8.50;;;11.10;99.90;;;;;;4973430;28;20650;-92
2022/10/31 01:06:42;;;;;;;9.63;7.90;;;11.40;99.90;;;;;;4972250;28;20650;-93
2022/10/31 01:09:09;;;;;;;10.43;8.40;;;11.10;99.90;;;;;;4978413;28;21005;-91
2022/10/31 01:11:36;;;;;;;12.73;8.40;;;11.00;99.90;;;;;;4977263;28;21063;-92
2022/10/31 01:14:03;;;;;;;12.50;7.67;;;11.30;99.90;;;;;;4972409;28;20649;-91
2022/10/31 01:16:31;;;;;;;13.37;8.00;;;11.20;99.90;;;;;;4971724;28;20957;-91
2022/10/31 01:18:58;;;;;;;9.10;8.20;;;11.30;99.90;;;;;;4977224;28;20633;-92
2022/10/31 01:21:27;;;;;;;10.87;8.47;;;11.30;99.90;;;;;;4981394;28;20633;-91
2022/10/31 01:23:57;;;;;;;9.27;8.20;;;11.30;99.90;;;;;;4974555;28;21040;-92
2022/10/31 01:26:26;;;;;;;9.23;7.77;;;11.10;99.90;;;;;;4970140;28;21225;-92
2022/10/31 01:28:55;;;;;;;8.90;7.80;;;11.20;99.90;;;;;;4970088;28;20633;-91
2022/10/31 01:31:25;;;;;;;9.37;7.87;;;10.90;99.90;;;;;;4972821;28;20669;-92
2022/10/31 01:33:53;;;;;;;9.00;8.10;;;11.10;99.90;;;;;;4973651;28;20649;-91
2022/10/31 01:36:22;;;;;;;11.37;10.20;;;11.10;99.90;;;;;;4969086;28;20632;-92
2022/10/31 01:38:50;;;;;;;10.30;8.40;;;11.40;99.90;;;;;;4969496;28;20629;-92
2022/10/31 01:41:21;;;;;;;12.73;7.43;;;10.70;99.90;;;;;;4969137;28;20618;-91
2022/10/31 01:43:52;;;;;;;14.60;8.00;;;10.70;99.90;;;;;;4970085;28;20691;-91
2022/10/31 01:46:23;;;;;;;10.93;7.97;;;10.70;99.90;;;;;;4969161;28;21212;-91
2022/10/31 01:48:50;;;;;;;9.07;7.23;;;11.10;99.90;;;;;;4970746;28;20684;-91
2022/10/31 01:51:21;;;;;;;11.10;8.30;;;10.70;99.90;;;;;;4970559;28;20670;-91
2022/10/31 01:53:48;;;;;;;9.90;7.67;;;10.70;99.90;;;;;;4970739;28;20657;-92
2022/10/31 01:56:18;;;;;;;9.10;6.80;;;10.70;99.90;;;;;;4968878;28;20621;-92
2022/10/31 01:58:47;;;;;;;10.63;7.60;;;10.60;99.90;;;;;;4970399;28;20641;-91
2022/10/31 02:01:15;;;;;;;9.77;8.33;;;11.00;99.90;;;;;;4973059;28;20680;-91
2022/10/31 02:03:42;;;;;;;8.60;7.70;;;11.10;99.90;;;;;;4968848;28;20657;-91
2022/10/31 02:06:14;;;;;;;9.47;8.43;;;10.50;99.90;;;;;;4975772;28;21203;-90
2022/10/31 02:08:44;;;;;;;11.43;7.03;;;10.90;99.90;;;;;;4970148;28;20640;-91
2022/10/31 02:11:12;;;;;;;8.80;7.83;;;10.70;99.90;;;;;;4966013;28;20657;-91
2022/10/31 02:13:41;;;;;;;12.90;7.43;;;11.10;99.90;;;;;;4970641;28;20657;-91
2022/10/31 02:16:11;;;;;;;11.77;8.20;;;10.90;99.90;;;;;;4966576;28;20637;-91
2022/10/31 02:18:38;;;;;;;9.10;7.90;;;10.70;99.90;;;;;;4971910;28;20649;-90
2022/10/31 02:21:12;;;;;;;9.53;7.10;;;10.50;99.90;;;;;;4969576;28;20626;-91
2022/10/31 02:24:07;;;;;;;8.50;7.60;;;10.90;99.90;;;;;;4969509;28;20649;-92
2022/10/31 02:26:46;;;;;;;8.30;7.50;;;11.10;99.90;;;;;;4966219;28;20640;-91
2022/10/31 02:29:49;;;;;;;11.80;7.30;;;10.40;99.90;;;;;;4970547;28;20631;-91
2022/10/31 02:32:24;;;;;;;12.07;7.77;;;10.90;99.90;;;;;;4970158;28;20648;-92
2022/10/31 02:34:58;;;;;;;9.87;7.50;;;10.70;99.90;;;;;;4969745;28;20667;-92
2022/10/31 02:37:34;;;;;;;8.30;7.50;;;10.60;99.90;;;;;;4969233;28;21257;-91
2022/10/31 02:40:10;;;;;;;13.30;8.10;;;10.80;99.90;;;;;;4969612;28;20637;-91
2022/10/31 02:42:46;;;;;;;9.13;7.23;;;10.40;99.90;;;;;;4971085;28;20629;-91
2022/10/31 02:45:20;;;;;;;9.03;7.40;;;10.80;99.90;;;;;;4968203;28;20656;-92
2022/10/31 02:47:51;;;;;;;9.17;7.00;;;10.80;99.90;;;;;;4970081;28;20632;-92
2022/10/31 02:50:22;;;;;;;12.43;7.37;;;10.80;99.90;;;;;;4971742;28;20632;-92
2022/10/31 02:52:51;;;;;;;12.07;7.43;;;10.70;99.90;;;;;;4974005;28;21009;-92
2022/10/31 02:55:51;;;;;;;9.77;8.27;;;10.80;99.90;;;;;;4972403;28;20674;-91
2022/10/31 02:58:22;;;;;;;11.70;6.90;;;10.90;99.90;;;;;;4971633;28;20625;-92
2022/10/31 03:01:02;;;;;;;9.70;7.40;;;10.40;99.90;;;;;;4972305;28;20675;-91
2022/10/31 03:03:37;;;;;;;11.47;7.17;;;10.80;99.90;;;;;;4973707;28;20629;-91
2022/10/31 03:06:10;;;;;;;8.07;7.37;;;10.40;99.90;;;;;;4971008;28;20647;-92
2022/10/31 03:08:48;;;;;;;8.80;6.50;;;10.40;99.90;;;;;;4972126;28;20633;-91
2022/10/31 03:11:17;;;;;;;9.70;7.33;;;10.80;99.90;;;;;;4975900;28;21162;-91
2022/10/31 03:13:49;;;;;;;10.13;7.40;;;10.40;99.90;;;;;;4975822;28;20657;-91
2022/10/31 03:16:23;;;;;;;10.20;7.33;;;10.60;99.90;;;;;;4971888;28;20629;-92
2022/10/31 03:18:56;;;;;;;7.60;6.80;;;10.60;99.90;;;;;;4976084;28;20635;-92
2022/10/31 03:21:28;;;;;;;13.83;7.17;;;10.40;99.90;;;;;;4971537;28;21158;-91
2022/10/31 03:23:56;;;;;;;6.83;6.13;;;10.50;99.90;;;;;;4974490;28;20654;-92
2022/10/31 03:26:25;;;;;;;8.70;7.90;;;10.70;99.90;;;;;;4973261;28;20633;-93
2022/10/31 03:28:58;;;;;;;9.27;6.93;;;10.80;99.90;;;;;;4976024;28;21323;-93
2022/10/31 03:31:31;;;;;;;7.30;6.57;;;10.60;99.90;;;;;;4973289;28;20629;-93
2022/10/31 03:34:01;;;;;;;8.43;6.40;;;10.50;99.90;;;;;;4973973;28;20667;-90
2022/10/31 03:36:30;;;;;;;7.80;6.37;;;10.70;99.90;;;;;;4973051;28;20660;-89
2022/10/31 03:38:59;;;;;;;6.30;5.70;;;10.60;99.90;;;;;;4972424;28;20995;-91
2022/10/31 03:41:32;;;;;;;8.10;6.90;;;10.70;99.90;;;;;;4967951;28;20672;-91
2022/10/31 03:44:03;;;;;;;12.20;7.73;;;10.50;99.90;;;;;;4973970;28;21221;-91
2022/10/31 03:46:29;;;;;;;8.80;6.30;;;10.00;99.90;;;;;;4967136;28;20633;-91
2022/10/31 03:48:57;;;;;;;9.10;6.80;;;10.10;99.90;;;;;;4955667;28;20634;-91
2022/10/31 03:51:33;;;;;;;8.10;6.73;;;10.20;99.90;;;;;;4969047;28;20625;-90
2022/10/31 03:54:09;;;;;;;10.37;6.90;;;10.50;99.90;;;;;;4972922;28;20648;-89
2022/10/31 03:56:38;;;;;;;8.30;6.90;;;10.50;99.90;;;;;;4972319;28;20613;-90
2022/10/31 03:59:09;;;;;;;10.87;6.30;;;10.10;99.90;;;;;;4976247;28;20632;-90
2022/10/31 04:01:42;;;;;;;8.10;6.47;;;9.90;99.90;;;;;;4970316;28;20658;-90
2022/10/31 04:04:09;;;;;;;8.00;7.20;;;10.40;99.90;;;;;;4968583;28;20653;-91
2022/10/31 04:06:40;;;;;;;8.20;7.23;;;10.40;99.90;;;;;;4970759;28;20645;-90
2022/10/31 04:09:10;;;;;;;6.17;5.57;;;9.90;99.90;;;;;;4967644;28;20977;-91
2022/10/31 04:11:41;;;;;;;7.43;6.47;;;10.40;99.90;;;;;;4972874;28;20641;-90
2022/10/31 04:14:10;;;;;;;9.07;7.43;;;10.50;99.90;;;;;;4969775;28;20714;-91
2022/10/31 04:16:38;;;;;;;7.70;6.87;;;10.10;99.90;;;;;;4962123;28;20632;-91
2022/10/31 04:19:05;;;;;;;7.93;7.03;;;10.30;99.90;;;;;;4971776;28;20628;-90
2022/10/31 04:21:32;;;;;;;6.67;5.93;;;9.90;99.90;;;;;;4967292;28;20661;-92
2022/10/31 04:24:00;;;;;;;8.07;6.47;;;10.40;99.90;;;;;;4971026;28;20684;-91
2022/10/31 04:26:27;;;;;;;8.10;7.30;;;10.30;99.90;;;;;;4971208;28;20990;-91
2022/10/31 04:28:53;;;;;;;11.30;7.50;;;10.50;99.90;;;;;;4973408;28;20632;-91
2022/10/31 04:31:20;;;;;;;8.70;6.63;;;10.00;99.90;;;;;;4971441;28;20630;-92
2022/10/31 04:33:47;;;;;;;8.47;7.27;;;10.20;99.90;;;;;;4971702;28;20665;-92
2022/10/31 04:36:14;;;;;;;9.73;7.30;;;10.20;99.90;;;;;;4954072;28;20634;-92
2022/10/31 04:38:42;;;;;;;8.10;6.90;;;10.20;99.90;;;;;;4973668;28;20652;-92
2022/10/31 04:41:10;;;;;;;9.40;7.23;;;10.10;99.90;;;;;;4971860;28;20654;-92
2022/10/31 04:43:36;;;;;;;11.53;7.10;;;9.90;99.90;;;;;;4972094;28;20980;-91
2022/10/31 04:46:04;;;;;;;9.93;6.90;;;10.00;99.90;;;;;;4970249;28;20741;-92
2022/10/31 04:48:31;;;;;;;11.67;6.60;;;9.70;99.90;;;;;;4974212;28;20640;-91
2022/10/31 04:51:00;;;;;;;10.40;6.57;;;10.10;99.90;;;;;;4973704;28;20637;-92
2022/10/31 04:53:27;;;;;;;12.63;7.37;;;10.20;99.90;;;;;;4972964;28;20665;-92
2022/10/31 04:55:54;;;;;;;10.57;7.80;;;10.30;99.90;;;;;;4978526;28;20626;-91
2022/10/31 04:58:22;;;;;;;7.80;6.30;;;9.80;99.90;;;;;;4971681;28;20640;-92
2022/10/31 05:00:51;;;;;;;10.27;6.67;;;9.80;99.90;;;;;;4970205;28;20629;-91
2022/10/31 05:03:18;;;;;;;8.50;6.73;;;9.90;99.90;;;;;;4969321;28;20632;-89
2022/10/31 05:05:45;;;;;;;9.70;6.40;;;10.10;99.90;;;;;;4968301;28;20630;-89
2022/10/31 05:08:12;;;;;;;7.40;5.90;;;10.00;99.90;;;;;;4969717;28;20708;-89
2022/10/31 05:10:39;;;;;;;7.13;6.33;;;10.10;99.90;;;;;;4970775;28;20630;-92
2022/10/31 05:13:06;;;;;;;9.63;6.97;;;9.60;99.90;;;;;;4974424;28;20626;-91
2022/10/31 05:15:34;;;;;;;12.03;6.73;;;9.60;99.90;;;;;;4971639;28;21022;-92
2022/10/31 05:18:01;;;;;;;10.47;6.73;;;9.80;99.90;;;;;;4970321;28;20629;-91
2022/10/31 05:20:29;;;;;;;10.17;6.03;;;9.90;99.90;;;;;;4972101;28;20622;-92
2022/10/31 05:22:57;;;;;;;7.73;5.70;;;9.60;99.90;;;;;;4972204;28;20661;-92
2022/10/31 05:25:27;;;;;;;7.80;5.93;;;9.80;99.90;;;;;;4968835;28;20653;-92
2022/10/31 05:27:55;;;;;;;6.53;5.80;;;9.80;99.90;;;;;;4971672;28;20668;-91
2022/10/31 05:30:24;;;;;;;14.50;6.50;;;9.50;99.90;;;;;;4970664;28;20651;-91
2022/10/31 05:32:52;;;;;;;7.50;6.80;;;9.90;99.90;;;;;;4970975;28;21184;-90
2022/10/31 05:35:21;;;;;;;9.27;6.23;;;9.90;99.90;;;;;;4969812;28;20695;-91
2022/10/31 05:37:47;;;;;;;10.40;7.10;;;9.90;99.90;;;;;;4971995;28;20637;-91
2022/10/31 05:40:16;;;;;;;8.43;6.33;;;9.30;99.90;;;;;;4969174;28;20629;-92
2022/10/31 05:42:44;;;;;;;7.30;6.13;;;9.80;99.90;;;;;;4968320;28;20677;-91
2022/10/31 05:45:13;;;;;;;9.00;6.23;;;9.50;99.90;;;;;;4969228;28;20653;-90
2022/10/31 05:47:40;;;;;;;8.10;7.30;;;9.50;99.90;;;;;;4970405;28;20632;-90
2022/10/31 05:50:09;;;;;;;8.13;6.23;;;9.50;99.90;;;;;;4970576;28;20635;-91
2022/10/31 05:52:37;;;;;;;9.83;6.63;;;10.10;99.90;;;;;;4971130;28;20641;-90
2022/10/31 05:55:05;;;;;;;7.73;6.93;;;9.80;99.90;;;;;;4975092;28;20668;-90
2022/10/31 05:57:33;;;;;;;9.50;6.93;;;9.90;99.90;;;;;;4974031;28;21224;-91
2022/10/31 06:00:00;;;;;;;7.10;6.40;;;9.90;99.90;;;;;;4975901;28;20621;-90
2022/10/31 06:02:31;;;;;;;10.77;7.00;;;9.70;99.90;;;;;;4974031;28;20673;-90
2022/10/31 06:04:58;;;;;;;9.17;8.10;;;9.80;99.90;;;;;;4976152;28;20646;-90
2022/10/31 06:07:26;;;;;;;11.97;10.70;;;9.20;99.90;;;;;;4974142;28;20833;-91
2022/10/31 06:09:53;;;;;;;9.17;8.30;;;9.60;99.90;;;;;;4968774;28;20630;-89
2022/10/31 06:12:19;;;;;;;25.27;18.10;;;9.50;99.90;;;;;;4969737;28;20626;-90
2022/10/31 06:14:46;;;;;;;25.43;23.30;;;9.20;99.90;;;;;;4969267;28;20652;-91
2022/10/31 06:17:13;;;;;;;24.60;22.67;;;9.20;99.90;;;;;;4970405;28;21387;-91
2022/10/31 06:19:39;;;;;;;22.13;19.93;;;9.50;99.90;;;;;;4970415;28;20621;-91
2022/10/31 06:22:06;;;;;;;20.03;18.40;;;9.20;99.90;;;;;;4969575;28;20688;-91
2022/10/31 06:24:34;;;;;;;14.07;12.77;;;9.30;99.90;;;;;;4970468;28;20645;-90
2022/10/31 06:27:01;;;;;;;12.27;10.20;;;9.20;99.90;;;;;;4971337;28;20632;-89
2022/10/31 06:29:28;;;;;;;11.10;10.00;;;9.70;99.90;;;;;;4981038;28;20643;-90
2022/10/31 06:31:55;;;;;;;10.83;8.63;;;9.70;99.90;;;;;;4973592;28;20629;-90
2022/10/31 06:34:22;;;;;;;12.53;8.30;;;9.80;99.90;;;;;;4975819;28;20649;-89
2022/10/31 06:36:49;;;;;;;10.47;7.73;;;9.80;99.90;;;;;;4964863;28;21178;-90
2022/10/31 06:39:16;;;;;;;9.30;8.30;;;9.30;99.90;;;;;;4972686;28;20629;-90
2022/10/31 06:41:44;;;;;;;11.37;8.13;;;9.70;99.90;;;;;;4972422;28;20673;-90
2022/10/31 06:44:11;;;;;;;12.17;8.87;;;9.80;99.90;;;;;;4978443;28;20653;-89
2022/10/31 06:46:38;;;;;;;17.03;8.90;;;9.60;99.90;;;;;;4971577;28;20637;-90
2022/10/31 06:49:04;;;;;;;20.73;9.20;;;9.60;99.90;;;;;;4970967;28;20661;-89
2022/10/31 06:51:31;;;;;;;17.67;8.80;;;9.80;99.90;;;;;;4973200;28;20621;-88
2022/10/31 06:53:58;;;;;;;23.93;9.53;;;9.50;99.90;;;;;;4977169;28;20667;-88
2022/10/31 06:56:24;;;;;;;11.47;7.57;;;9.70;99.90;;;;;;4967837;28;21222;-89
2022/10/31 06:58:53;;;;;;;9.30;8.20;;;9.50;99.90;;;;;;4973046;28;20640;-89
2022/10/31 07:01:20;;;;;;;10.30;7.53;;;10.10;99.90;;;;;;4971820;28;21029;-89
2022/10/31 07:03:47;;;;;;;8.70;7.67;;;9.70;99.90;;;;;;4970906;28;21514;-89
2022/10/31 07:06:14;;;;;;;10.27;8.17;;;10.00;99.90;;;;;;4968318;28;20649;-89
2022/10/31 07:08:41;;;;;;;10.20;7.70;;;9.70;99.90;;;;;;4956277;28;20633;-89
2022/10/31 07:11:08;;;;;;;8.73;7.67;;;9.80;99.90;;;;;;4971413;28;20629;-89
2022/10/31 07:13:34;;;;;;;10.60;8.33;;;9.70;99.90;;;;;;4976091;28;21352;-89
2022/10/31 07:16:06;;;;;;;11.00;8.10;;;9.70;99.90;;;;;;4976910;28;20634;-88
2022/10/31 07:18:33;;;;;;;11.83;8.80;;;10.20;99.90;;;;;;4974830;28;20707;-89
2022/10/31 07:21:00;;;;;;;11.60;8.83;;;9.90;99.90;;;;;;4974939;28;20632;-89
2022/10/31 07:23:28;;;;;;;9.47;8.17;;;9.80;99.90;;;;;;4979147;28;20669;-88
2022/10/31 07:25:56;;;;;;;10.37;8.27;;;10.00;99.90;;;;;;4974045;28;20653;-89
2022/10/31 07:28:24;;;;;;;9.40;8.40;;;10.20;99.90;;;;;;4975074;28;20649;-88
2022/10/31 07:30:52;;;;;;;9.57;8.70;;;10.50;99.90;;;;;;4973140;28;20659;-89
2022/10/31 07:33:20;;;;;;;9.23;7.97;;;10.50;99.90;;;;;;4969674;28;20626;-88
2022/10/31 07:35:47;;;;;;;10.10;8.17;;;10.50;99.90;;;;;;4973961;28;20630;-88
2022/10/31 07:38:15;;;;;;;10.60;8.00;;;10.50;99.90;;;;;;4973031;28;20616;-88
2022/10/31 07:40:43;;;;;;;9.53;8.60;;;10.60;99.90;;;;;;4972495;28;20736;-90
2022/10/31 07:43:12;;;;;;;10.50;8.73;;;10.40;99.90;;;;;;4968132;28;20664;-88
2022/10/31 07:45:39;;;;;;;9.77;8.97;;;10.50;99.90;;;;;;4969777;28;20653;-88
2022/10/31 07:48:06;;;;;;;10.00;9.10;;;10.40;99.90;;;;;;4967744;28;20630;-90
2022/10/31 07:50:34;;;;;;;10.40;9.40;;;10.90;99.90;;;;;;4970628;28;20633;-90
2022/10/31 07:53:02;;;;;;;8.93;7.97;;;10.40;99.90;;;;;;4972341;28;20629;-89
2022/10/31 07:55:31;;;;;;;9.90;8.20;;;10.50;99.90;;;;;;4973578;28;20660;-90
2022/10/31 07:57:59;;;;;;;11.23;9.30;;;10.60;99.90;;;;;;4970839;28;20701;-89
2022/10/31 08:00:27;;;;;;;8.80;8.00;;;11.00;99.90;;;;;;4975111;28;20640;-89
2022/10/31 08:03:00;;;;;;;9.43;7.37;;;10.70;99.90;;;;;;4970526;28;20670;-89
2022/10/31 08:05:27;;;;;;;7.90;7.10;;;10.70;99.90;;;;;;4965772;28;21222;-89
2022/10/31 08:07:56;;;;;;;8.10;7.40;;;10.80;99.90;;;;;;4971320;28;20634;-90
2022/10/31 08:10:23;;;;;;;9.90;7.73;;;11.20;99.90;;;;;;4974426;28;20641;-89
2022/10/31 08:12:56;;;;;;;9.83;6.47;;;10.90;99.90;;;;;;4970092;28;21299;-89
2022/10/31 08:15:23;;;;;;;10.87;6.40;;;11.30;99.90;;;;;;4970378;28;21057;-89
2022/10/31 08:17:50;;;;;;;9.77;6.90;;;11.30;99.90;;;;;;4969651;28;20704;-89
2022/10/31 08:20:16;;;;;;;11.37;7.23;;;11.50;99.90;;;;;;4968213;28;20618;-90
2022/10/31 08:22:43;;;;;;;8.70;6.80;;;11.60;99.90;;;;;;4972221;28;20691;-90
2022/10/31 08:25:11;;;;;;;10.10;7.40;;;11.80;99.90;;;;;;4974761;28;21065;-89
2022/10/31 08:27:38;;;;;;;10.80;7.20;;;11.40;99.90;;;;;;4972541;28;20629;-89
2022/10/31 08:30:06;;;;;;;10.70;7.43;;;11.80;99.90;;;;;;4981541;28;20636;-90
2022/10/31 08:32:33;;;;;;;7.90;6.30;;;11.90;99.90;;;;;;4971448;28;20633;-91
2022/10/31 08:35:02;;;;;;;9.30;7.13;;;11.70;99.90;;;;;;4971098;28;21438;-90
2022/10/31 08:37:29;;;;;;;9.20;6.90;;;11.70;99.90;;;;;;4972965;28;21196;-89
2022/10/31 08:39:56;;;;;;;6.93;6.20;;;11.90;99.90;;;;;;4971363;28;21217;-91
2022/10/31 08:42:24;;;;;;;6.67;5.63;;;12.30;99.90;;;;;;4941773;28;20677;-93
2022/10/31 08:44:51;;;;;;;11.03;7.33;;;12.40;99.90;;;;;;4971364;28;20732;-91
2022/10/31 08:47:19;;;;;;;8.53;6.50;;;12.50;99.90;;;;;;4969530;28;20656;-93
2022/10/31 08:49:46;;;;;;;7.60;6.33;;;12.30;99.90;;;;;;4972153;28;20645;-90
2022/10/31 08:52:14;;;;;;;9.07;7.20;;;12.80;99.90;;;;;;4971553;28;20653;-89
2022/10/31 08:54:41;;;;;;;8.13;6.97;;;12.80;99.90;;;;;;4972259;28;20728;-93
2022/10/31 08:57:08;;;;;;;8.80;6.87;;;13.00;99.90;;;;;;4969404;28;20653;-92
2022/10/31 08:59:36;;;;;;;9.17;6.90;;;13.10;99.90;;;;;;4971962;28;20630;-95
2022/10/31 09:02:03;;;;;;;8.57;6.37;;;13.20;99.90;;;;;;4969779;28;21292;-88
2022/10/31 09:04:30;;;;;;;9.27;7.33;;;13.30;99.90;;;;;;4973315;28;20660;-90
2022/10/31 09:06:57;;;;;;;8.80;5.77;;;13.30;99.90;;;;;;4968604;28;20642;-90
2022/10/31 09:09:24;;;;;;;9.27;6.80;;;13.40;99.90;;;;;;4971399;28;20630;-90
2022/10/31 09:11:51;;;;;;;9.03;6.30;;;13.50;99.90;;;;;;4963207;28;20632;-90
2022/10/31 09:14:18;;;;;;;9.07;7.07;;;13.50;99.90;;;;;;4972510;28;20787;-89
2022/10/31 09:16:46;;;;;;;11.30;7.37;;;13.60;99.90;;;;;;4968236;28;20626;-89
2022/10/31 09:19:13;;;;;;;10.50;7.80;;;13.70;99.90;;;;;;4966776;28;20992;-90
2022/10/31 09:21:39;;;;;;;14.90;7.70;;;13.80;99.90;;;;;;4974630;28;20638;-90
2022/10/31 09:24:07;;;;;;;11.50;6.80;;;13.80;99.90;;;;;;4970117;28;20661;-90
2022/10/31 09:26:34;;;;;;;9.40;6.23;;;13.80;99.90;;;;;;4977135;28;20640;-91
2022/10/31 09:29:01;;;;;;;8.40;6.40;;;14.00;99.90;;;;;;4973924;28;20613;-91
2022/10/31 09:31:28;;;;;;;10.03;5.77;;;14.10;99.90;;;;;;4971072;28;20633;-92
2022/10/31 09:33:56;;;;;;;7.53;6.70;;;14.20;99.90;;;;;;4971344;28;21354;-91
2022/10/31 09:36:23;;;;;;;9.00;5.73;;;14.20;99.90;;;;;;4971439;28;20995;-92
2022/10/31 09:38:52;;;;;;;7.07;6.37;;;14.30;99.90;;;;;;4971403;28;20987;-91
2022/10/31 09:41:25;;;;;;;11.90;7.93;;;14.40;99.90;;;;;;4967537;28;20625;-91
2022/10/31 09:44:00;;;;;;;9.00;6.60;;;14.40;99.90;;;;;;4973732;28;20665;-92
2022/10/31 09:46:49;;;;;;;11.27;6.73;;;14.60;99.90;;;;;;4962435;28;20625;-93
2022/10/31 09:49:41;;;;;;;8.80;6.37;;;14.70;99.90;;;;;;4965222;28;20629;-90
2022/10/31 09:52:14;;;;;;;7.80;5.20;;;14.80;99.90;;;;;;4965541;28;20634;-90
2022/10/31 09:54:46;;;;;;;9.13;5.60;;;14.90;99.90;;;;;;4971005;28;21033;-92
2022/10/31 09:57:15;;;;;;;7.77;5.80;;;15.10;99.90;;;;;;4972241;28;20618;-91
2022/10/31 09:59:45;;;;;;;9.97;5.17;;;15.10;99.90;;;;;;4969447;28;20633;-91
2022/10/31 10:02:17;;;;;;;9.30;5.83;;;15.30;99.90;;;;;;4967398;28;20634;-92
2022/10/31 10:04:54;;;;;;;10.33;6.57;;;15.40;99.90;;;;;;4967134;28;21062;-91
2022/10/31 10:07:30;;;;;;;9.77;6.33;;;15.50;99.90;;;;;;4968579;28;20641;-91
2022/10/31 10:09:57;;;;;;;9.57;6.50;;;15.80;99.90;;;;;;4966942;28;20625;-90
2022/10/31 10:12:46;;;;;;;10.77;4.90;;;16.00;99.90;;;;;;4966803;28;20617;-89
2022/10/31 10:15:49;;;;;;;7.43;5.73;;;15.90;99.90;;;;;;4963884;28;20650;-91
2022/10/31 10:18:26;;;;;;;10.40;6.23;;;16.10;99.90;;;;;;4963023;28;20638;-92
2022/10/31 10:21:06;;;;;;;6.40;5.40;;;16.30;99.90;;;;;;4966226;28;20640;-91
2022/10/31 10:23:51;;;;;;;5.60;4.60;;;16.50;99.90;;;;;;4964571;28;20691;-89
2022/10/31 10:26:20;;;;;;;8.20;5.80;;;16.80;99.90;;;;;;4969826;28;20669;-89
2022/10/31 10:28:52;;;;;;;5.40;4.90;;;16.90;99.90;;;;;;4969259;28;20695;-89
2022/10/31 10:31:24;;;;;;;13.67;5.83;;;17.10;99.90;;;;;;4967213;28;20637;-89
2022/10/31 10:34:02;;;;;;;6.83;5.70;;;17.30;99.90;;;;;;4959587;28;20677;-89
2022/10/31 10:36:37;;;;;;;7.90;6.20;;;17.50;99.90;;;;;;4966319;28;20644;-91
2022/10/31 10:39:09;;;;;;;10.83;5.50;;;17.50;99.90;;;;;;4964082;28;20622;-90
2022/10/31 10:41:45;;;;;;;7.23;4.50;;;17.80;99.90;;;;;;4964971;28;21241;-92
2022/10/31 10:44:11;;;;;;;9.13;5.33;;;17.90;99.90;;;;;;4971186;28;21371;-89
2022/10/31 10:49:33;;;;;;;11.03;5.73;;;18.10;99.90;;;;;;4968661;28;20217;-88
2022/10/31 10:52:08;;;;;;;11.07;6.17;;;18.10;99.90;;;;;;4965802;28;20625;-92
2022/10/31 10:54:55;;;;;;;11.90;5.33;;;18.10;99.90;;;;;;4961764;28;20663;-90
2022/10/31 10:57:30;;;;;;;8.50;5.20;;;18.00;99.90;;;;;;4965538;28;20647;-91
2022/10/31 11:00:01;;;;;;;6.93;5.00;;;17.90;99.90;;;;;;4965136;28;20629;-93
2022/10/31 11:02:32;;;;;;;10.43;5.57;;;17.90;99.90;;;;;;4960694;28;21190;-92
2022/10/31 11:05:02;;;;;;;7.43;5.10;;;17.70;99.90;;;;;;4967392;28;20684;-93
2022/10/31 11:07:40;;;;;;;8.53;5.50;;;17.50;99.90;;;;;;4968253;28;20641;-90
2022/10/31 11:10:14;;;;;;;9.87;6.90;;;17.50;99.90;;;;;;4969248;28;20621;-92
2022/10/31 11:12:43;;;;;;;8.17;6.00;;;17.50;99.90;;;;;;4966029;28;20649;-92
2022/10/31 11:15:23;;;;;;;5.90;5.20;;;17.50;99.90;;;;;;4973131;28;20657;-89
2022/10/31 11:17:52;;;;;;;11.20;6.67;;;17.30;99.90;;;;;;4974856;28;20632;-90
2022/10/31 11:20:32;;;;;;;7.33;5.70;;;17.40;99.90;;;;;;4972609;28;20625;-88
2022/10/31 11:23:06;;;;;;;8.70;4.43;;;17.60;99.90;;;;;;4973272;28;20633;-93
2022/10/31 11:25:33;;;;;;;9.33;5.30;;;17.80;99.90;;;;;;4968455;28;20657;-90
2022/10/31 11:28:00;;;;;;;7.07;5.57;;;18.10;99.90;;;;;;4968993;28;20642;-88
2022/10/31 11:30:27;;;;;;;7.70;5.57;;;18.40;99.90;;;;;;4973149;28;20639;-90
2022/10/31 11:32:54;;;;;;;6.83;6.00;;;18.70;99.90;;;;;;4970751;28;20622;-92
2022/10/31 11:35:24;;;;;;;12.03;6.37;;;18.80;99.90;;;;;;4970873;28;20649;-91
2022/10/31 11:37:53;;;;;;;14.63;6.47;;;19.00;99.90;;;;;;4970939;28;20644;-91
2022/10/31 11:40:24;;;;;;;6.90;5.50;;;19.10;99.90;;;;;;4970464;28;20657;-91
2022/10/31 11:42:54;;;;;;;10.50;6.10;;;19.20;99.90;;;;;;4971705;28;20633;-91
2022/10/31 11:45:31;;;;;;;8.13;4.90;;;19.30;99.90;;;;;;4974480;28;20650;-91
2022/10/31 11:48:00;;;;;;;6.57;5.37;;;19.40;99.90;;;;;;4966553;28;20640;-91
2022/10/31 11:50:32;;;;;;;6.90;6.30;;;19.60;99.90;;;;;;4971260;28;20629;-90
2022/10/31 11:52:59;;;;;;;7.53;5.50;;;19.60;99.90;;;;;;4971145;28;21068;-91
2022/10/31 11:55:36;;;;;;;10.83;6.00;;;19.80;99.90;;;;;;4972582;28;20665;-91
2022/10/31 11:58:03;;;;;;;9.50;5.97;;;19.90;99.90;;;;;;4971991;28;20665;-91
2022/10/31 12:00:32;;;;;;;8.40;5.43;;;20.10;99.90;;;;;;4968600;28;20653;-91
2022/10/31 12:03:24;;;;;;;10.33;5.40;;;20.30;99.90;;;;;;4971151;28;20630;-91
2022/10/31 12:05:56;;;;;;;15.00;4.70;;;20.40;99.90;;;;;;4969176;28;20688;-89
2022/10/31 12:08:25;;;;;;;10.10;5.00;;;20.30;99.90;;;;;;4969809;28;20676;-87
2022/10/31 12:11:00;;;;;;;10.40;5.50;;;20.40;99.90;;;;;;4968587;28;20641;-90
2022/10/31 12:13:34;;;;;;;5.83;5.27;;;20.40;99.90;;;;;;4967952;28;21220;-90
2022/10/31 12:16:09;;;;;;;8.13;5.33;;;20.20;99.90;;;;;;4969924;28;21050;-90
2022/10/31 12:18:53;;;;;;;7.07;5.00;;;20.30;99.90;;;;;;4969189;28;20625;-90
2022/10/31 12:21:38;;;;;;;7.50;4.70;;;20.30;99.90;;;;;;4971917;28;20638;-89
2022/10/31 12:24:19;;;;;;;6.50;4.83;;;20.50;99.90;;;;;;4970104;28;21085;-91
2022/10/31 12:26:55;;;;;;;6.67;5.50;;;20.50;99.90;;;;;;4969256;28;20640;-92
2022/10/31 12:29:38;;;;;;;7.37;5.03;;;20.70;99.90;;;;;;4969220;28;20637;-89
2022/10/31 12:32:22;;;;;;;12.30;5.27;;;20.70;99.90;;;;;;4968238;28;20637;-91
2022/10/31 12:35:05;;;;;;;8.73;4.83;;;20.60;99.90;;;;;;4972956;28;20641;-91
2022/10/31 12:37:46;;;;;;;11.87;5.77;;;20.60;99.90;;;;;;4972917;28;20637;-89
2022/10/31 12:40:31;;;;;;;6.97;5.53;;;20.60;99.90;;;;;;4970724;28;20629;-91
2022/10/31 12:43:12;;;;;;;9.10;6.03;;;20.60;99.90;;;;;;4968680;28;20617;-90
2022/10/31 12:45:51;;;;;;;8.30;5.50;;;20.40;99.90;;;;;;4973693;28;20645;-89
2022/10/31 12:48:53;;;;;;;11.70;5.60;;;20.20;99.90;;;;;;4979462;28;20628;-92
2022/10/31 12:51:29;;;;;;;9.17;5.57;;;20.00;99.90;;;;;;4971505;28;20732;-91
2022/10/31 12:54:13;;;;;;;7.40;5.47;;;19.90;99.90;;;;;;4974123;28;20630;-91
2022/10/31 12:56:48;;;;;;;9.10;5.40;;;19.90;99.90;;;;;;4965626;28;20633;-90
2022/10/31 12:59:22;;;;;;;10.13;4.70;;;19.70;99.90;;;;;;4969277;28;20621;-91
2022/10/31 13:01:56;;;;;;;8.03;6.50;;;19.70;99.90;;;;;;4977059;28;20914;-91
2022/10/31 13:04:38;;;;;;;5.77;4.87;;;19.60;99.90;;;;;;4973114;28;20681;-91